sensor_id;sensor_type;location;lat;lon;timestamp;P1;durP1;ratioP1;P2;durP2;ratioP2
76656;SDS011;65576;47.714;9.414;2023-12-20T00:00:04;1.05;;;0.93;;
76656;SDS011;65576;47.714;9.414;2023-12-20T00:02:31;2.83;;;1.65;;
76656;SDS011;65576;47.714;9.414;2023-12-20T00:04:56;1.17;;;0.95;;
76656;SDS011;65576;47.714;9.414;2023-12-20T00:07:21;0.47;;;0.45;;
76656;SDS011;65576;47.714;9.414;2023-12-20T00:09:47;0.55;;;0.55;;
76656;SDS011;65576;47.714;9.414;2023-12-20T00:12:12;2.00;;;1.33;;
76656;SDS011;65576;47.714;9.414;2023-12-20T00:14:37;1.33;;;1.23;;
76656;SDS011;65576;47.714;9.414;2023-12-20T00:17:03;0.77;;;0.77;;
76656;SDS011;65576;47.714;9.414;2023-12-20T00:19:28;2.10;;;1.25;;
76656;SDS011;65576;47.714;9.414;2023-12-20T00:21:53;1.63;;;1.48;;
76656;SDS011;65576;47.714;9.414;2023-12-20T00:24:19;1.35;;;1.00;;
76656;SDS011;65576;47.714;9.414;2023-12-20T00:26:45;1.00;;;0.95;;
76656;SDS011;65576;47.714;9.414;2023-12-20T00:29:10;2.50;;;1.10;;
76656;SDS011;65576;47.714;9.414;2023-12-20T00:31:36;0.77;;;0.77;;
76656;SDS011;65576;47.714;9.414;2023-12-20T00:34:01;0.57;;;0.57;;
76656;SDS011;65576;47.714;9.414;2023-12-20T00:36:26;1.75;;;1.58;;
76656;SDS011;65576;47.714;9.414;2023-12-20T00:38:52;1.63;;;1.02;;
76656;SDS011;65576;47.714;9.414;2023-12-20T00:41:17;0.85;;;0.85;;
76656;SDS011;65576;47.714;9.414;2023-12-20T00:43:43;1.63;;;1.25;;
76656;SDS011;65576;47.714;9.414;2023-12-20T00:46:09;1.15;;;0.73;;
76656;SDS011;65576;47.714;9.414;2023-12-20T00:48:34;0.68;;;0.68;;
76656;SDS011;65576;47.714;9.414;2023-12-20T00:51:00;1.27;;;1.13;;
76656;SDS011;65576;47.714;9.414;2023-12-20T00:53:25;1.25;;;1.15;;
76656;SDS011;65576;47.714;9.414;2023-12-20T00:55:50;1.77;;;1.25;;
76656;SDS011;65576;47.714;9.414;2023-12-20T00:58:15;1.27;;;1.15;;
76656;SDS011;65576;47.714;9.414;2023-12-20T01:00:41;0.75;;;0.60;;
76656;SDS011;65576;47.714;9.414;2023-12-20T01:03:08;0.77;;;0.77;;
76656;SDS011;65576;47.714;9.414;2023-12-20T01:05:33;1.25;;;1.13;;
76656;SDS011;65576;47.714;9.414;2023-12-20T01:07:58;2.20;;;1.38;;
76656;SDS011;65576;47.714;9.414;2023-12-20T01:10:23;2.38;;;1.70;;
76656;SDS011;65576;47.714;9.414;2023-12-20T01:12:53;2.22;;;1.23;;
76656;SDS011;65576;47.714;9.414;2023-12-20T01:15:18;1.88;;;1.55;;
76656;SDS011;65576;47.714;9.414;2023-12-20T01:17:43;1.77;;;1.30;;
76656;SDS011;65576;47.714;9.414;2023-12-20T01:20:09;2.10;;;1.08;;
76656;SDS011;65576;47.714;9.414;2023-12-20T01:22:34;1.08;;;0.98;;
76656;SDS011;65576;47.714;9.414;2023-12-20T01:25:00;1.73;;;1.38;;
76656;SDS011;65576;47.714;9.414;2023-12-20T01:27:27;2.13;;;0.93;;
76656;SDS011;65576;47.714;9.414;2023-12-20T01:29:52;4.43;;;1.50;;
76656;SDS011;65576;47.714;9.414;2023-12-20T01:32:18;1.65;;;1.20;;
76656;SDS011;65576;47.714;9.414;2023-12-20T01:34:43;1.45;;;1.05;;
76656;SDS011;65576;47.714;9.414;2023-12-20T01:37:08;1.80;;;1.63;;
76656;SDS011;65576;47.714;9.414;2023-12-20T01:39:33;2.00;;;1.20;;
76656;SDS011;65576;47.714;9.414;2023-12-20T01:41:59;2.20;;;1.52;;
76656;SDS011;65576;47.714;9.414;2023-12-20T01:44:24;1.05;;;0.98;;
76656;SDS011;65576;47.714;9.414;2023-12-20T01:46:49;0.82;;;0.80;;
76656;SDS011;65576;47.714;9.414;2023-12-20T01:49:15;4.15;;;1.42;;
76656;SDS011;65576;47.714;9.414;2023-12-20T01:51:40;4.35;;;1.63;;
76656;SDS011;65576;47.714;9.414;2023-12-20T01:54:06;1.40;;;1.30;;
76656;SDS011;65576;47.714;9.414;2023-12-20T01:56:31;2.33;;;1.63;;
76656;SDS011;65576;47.714;9.414;2023-12-20T01:58:57;1.25;;;0.80;;
76656;SDS011;65576;47.714;9.414;2023-12-20T02:01:23;1.10;;;1.00;;
76656;SDS011;65576;47.714;9.414;2023-12-20T02:03:49;2.15;;;1.50;;
76656;SDS011;65576;47.714;9.414;2023-12-20T02:06:15;1.33;;;1.23;;
76656;SDS011;65576;47.714;9.414;2023-12-20T02:08:41;1.60;;;1.50;;
76656;SDS011;65576;47.714;9.414;2023-12-20T02:11:06;1.42;;;1.15;;
76656;SDS011;65576;47.714;9.414;2023-12-20T02:13:31;2.33;;;1.17;;
76656;SDS011;65576;47.714;9.414;2023-12-20T02:15:57;1.75;;;1.63;;
76656;SDS011;65576;47.714;9.414;2023-12-20T02:18:22;3.10;;;1.65;;
76656;SDS011;65576;47.714;9.414;2023-12-20T02:20:47;2.53;;;1.27;;
76656;SDS011;65576;47.714;9.414;2023-12-20T02:23:13;1.95;;;1.20;;
76656;SDS011;65576;47.714;9.414;2023-12-20T02:25:38;1.67;;;1.30;;
76656;SDS011;65576;47.714;9.414;2023-12-20T02:28:03;1.48;;;1.08;;
76656;SDS011;65576;47.714;9.414;2023-12-20T02:30:29;2.78;;;1.42;;
76656;SDS011;65576;47.714;9.414;2023-12-20T02:32:54;1.88;;;1.10;;
76656;SDS011;65576;47.714;9.414;2023-12-20T02:35:20;2.13;;;1.92;;
76656;SDS011;65576;47.714;9.414;2023-12-20T02:37:45;2.38;;;1.35;;
76656;SDS011;65576;47.714;9.414;2023-12-20T02:40:11;1.58;;;1.42;;
76656;SDS011;65576;47.714;9.414;2023-12-20T02:42:36;2.47;;;1.40;;
76656;SDS011;65576;47.714;9.414;2023-12-20T02:45:01;1.92;;;1.50;;
76656;SDS011;65576;47.714;9.414;2023-12-20T02:47:27;1.67;;;1.58;;
76656;SDS011;65576;47.714;9.414;2023-12-20T02:49:53;2.08;;;1.50;;
76656;SDS011;65576;47.714;9.414;2023-12-20T02:52:18;3.85;;;1.88;;
76656;SDS011;65576;47.714;9.414;2023-12-20T02:54:44;1.58;;;1.42;;
76656;SDS011;65576;47.714;9.414;2023-12-20T02:57:09;1.25;;;1.00;;
76656;SDS011;65576;47.714;9.414;2023-12-20T02:59:34;1.88;;;1.67;;
76656;SDS011;65576;47.714;9.414;2023-12-20T03:02:00;1.45;;;1.33;;
76656;SDS011;65576;47.714;9.414;2023-12-20T03:04:25;1.60;;;1.45;;
76656;SDS011;65576;47.714;9.414;2023-12-20T03:06:50;1.98;;;1.67;;
76656;SDS011;65576;47.714;9.414;2023-12-20T03:09:16;1.30;;;1.20;;
76656;SDS011;65576;47.714;9.414;2023-12-20T03:11:41;2.50;;;1.45;;
76656;SDS011;65576;47.714;9.414;2023-12-20T03:14:06;2.80;;;1.92;;
76656;SDS011;65576;47.714;9.414;2023-12-20T03:16:32;1.20;;;1.10;;
76656;SDS011;65576;47.714;9.414;2023-12-20T03:18:58;1.48;;;1.25;;
76656;SDS011;65576;47.714;9.414;2023-12-20T03:21:23;2.45;;;1.95;;
76656;SDS011;65576;47.714;9.414;2023-12-20T03:23:49;3.67;;;2.20;;
76656;SDS011;65576;47.714;9.414;2023-12-20T03:26:14;2.38;;;1.70;;
76656;SDS011;65576;47.714;9.414;2023-12-20T03:28:39;2.53;;;1.70;;
76656;SDS011;65576;47.714;9.414;2023-12-20T03:31:04;2.58;;;1.60;;
76656;SDS011;65576;47.714;9.414;2023-12-20T03:33:30;1.85;;;1.50;;
76656;SDS011;65576;47.714;9.414;2023-12-20T03:35:55;4.45;;;1.90;;
76656;SDS011;65576;47.714;9.414;2023-12-20T03:38:21;2.72;;;1.73;;
76656;SDS011;65576;47.714;9.414;2023-12-20T03:40:46;1.95;;;1.55;;
76656;SDS011;65576;47.714;9.414;2023-12-20T03:43:12;3.63;;;2.08;;
76656;SDS011;65576;47.714;9.414;2023-12-20T03:45:37;3.65;;;1.98;;
76656;SDS011;65576;47.714;9.414;2023-12-20T03:48:02;1.98;;;1.63;;
76656;SDS011;65576;47.714;9.414;2023-12-20T03:50:28;1.40;;;1.30;;
76656;SDS011;65576;47.714;9.414;2023-12-20T03:52:53;2.70;;;2.03;;
76656;SDS011;65576;47.714;9.414;2023-12-20T03:55:19;2.20;;;1.40;;
76656;SDS011;65576;47.714;9.414;2023-12-20T03:57:44;2.15;;;1.58;;
76656;SDS011;65576;47.714;9.414;2023-12-20T04:00:10;2.95;;;2.42;;
76656;SDS011;65576;47.714;9.414;2023-12-20T04:02:42;4.05;;;1.80;;
76656;SDS011;65576;47.714;9.414;2023-12-20T04:05:08;3.40;;;1.95;;
76656;SDS011;65576;47.714;9.414;2023-12-20T04:07:34;2.55;;;1.73;;
76656;SDS011;65576;47.714;9.414;2023-12-20T04:10:00;1.77;;;1.67;;
76656;SDS011;65576;47.714;9.414;2023-12-20T04:12:26;4.00;;;2.10;;
76656;SDS011;65576;47.714;9.414;2023-12-20T04:14:52;1.95;;;1.48;;
76656;SDS011;65576;47.714;9.414;2023-12-20T04:17:17;1.70;;;1.50;;
76656;SDS011;65576;47.714;9.414;2023-12-20T04:19:42;3.45;;;1.70;;
76656;SDS011;65576;47.714;9.414;2023-12-20T04:22:08;2.40;;;2.10;;
76656;SDS011;65576;47.714;9.414;2023-12-20T04:24:33;2.03;;;1.65;;
76656;SDS011;65576;47.714;9.414;2023-12-20T04:26:59;7.32;;;1.83;;
76656;SDS011;65576;47.714;9.414;2023-12-20T04:29:24;2.55;;;1.98;;
76656;SDS011;65576;47.714;9.414;2023-12-20T04:31:49;3.70;;;2.03;;
76656;SDS011;65576;47.714;9.414;2023-12-20T04:34:16;2.05;;;1.75;;
76656;SDS011;65576;47.714;9.414;2023-12-20T04:36:41;2.40;;;1.70;;
76656;SDS011;65576;47.714;9.414;2023-12-20T04:39:07;3.85;;;2.08;;
76656;SDS011;65576;47.714;9.414;2023-12-20T04:41:32;2.88;;;1.88;;
76656;SDS011;65576;47.714;9.414;2023-12-20T04:43:58;2.38;;;1.52;;
76656;SDS011;65576;47.714;9.414;2023-12-20T04:46:23;3.22;;;2.45;;
76656;SDS011;65576;47.714;9.414;2023-12-20T04:48:48;5.38;;;1.58;;
76656;SDS011;65576;47.714;9.414;2023-12-20T04:51:13;1.98;;;1.63;;
76656;SDS011;65576;47.714;9.414;2023-12-20T04:53:39;4.03;;;2.13;;
76656;SDS011;65576;47.714;9.414;2023-12-20T04:56:04;2.88;;;1.70;;
76656;SDS011;65576;47.714;9.414;2023-12-20T04:58:30;1.80;;;1.63;;
76656;SDS011;65576;47.714;9.414;2023-12-20T05:00:55;3.10;;;1.83;;
76656;SDS011;65576;47.714;9.414;2023-12-20T05:03:20;1.25;;;1.15;;
76656;SDS011;65576;47.714;9.414;2023-12-20T05:05:45;3.35;;;2.13;;
76656;SDS011;65576;47.714;9.414;2023-12-20T05:08:11;2.17;;;1.40;;
76656;SDS011;65576;47.714;9.414;2023-12-20T05:10:36;1.80;;;1.45;;
76656;SDS011;65576;47.714;9.414;2023-12-20T05:13:02;2.10;;;1.70;;
76656;SDS011;65576;47.714;9.414;2023-12-20T05:15:27;1.20;;;1.10;;
76656;SDS011;65576;47.714;9.414;2023-12-20T05:17:52;2.50;;;1.50;;
76656;SDS011;65576;47.714;9.414;2023-12-20T05:20:18;3.00;;;1.75;;
76656;SDS011;65576;47.714;9.414;2023-12-20T05:22:43;1.33;;;1.23;;
76656;SDS011;65576;47.714;9.414;2023-12-20T05:25:10;1.35;;;1.25;;
76656;SDS011;65576;47.714;9.414;2023-12-20T05:27:35;1.40;;;1.00;;
76656;SDS011;65576;47.714;9.414;2023-12-20T05:30:00;3.42;;;0.75;;
76656;SDS011;65576;47.714;9.414;2023-12-20T05:32:26;4.00;;;1.92;;
76656;SDS011;65576;47.714;9.414;2023-12-20T05:34:51;6.03;;;2.03;;
76656;SDS011;65576;47.714;9.414;2023-12-20T05:37:16;1.95;;;1.55;;
76656;SDS011;65576;47.714;9.414;2023-12-20T05:39:41;1.88;;;1.77;;
76656;SDS011;65576;47.714;9.414;2023-12-20T05:42:07;1.95;;;1.70;;
76656;SDS011;65576;47.714;9.414;2023-12-20T05:44:32;2.33;;;2.13;;
76656;SDS011;65576;47.714;9.414;2023-12-20T05:46:57;1.63;;;1.38;;
76656;SDS011;65576;47.714;9.414;2023-12-20T05:49:23;1.52;;;1.30;;
76656;SDS011;65576;47.714;9.414;2023-12-20T05:51:48;2.10;;;1.33;;
76656;SDS011;65576;47.714;9.414;2023-12-20T05:54:13;2.03;;;1.35;;
76656;SDS011;65576;47.714;9.414;2023-12-20T05:56:39;2.40;;;1.90;;
76656;SDS011;65576;47.714;9.414;2023-12-20T05:59:04;1.90;;;1.35;;
76656;SDS011;65576;47.714;9.414;2023-12-20T06:01:29;2.58;;;2.05;;
76656;SDS011;65576;47.714;9.414;2023-12-20T06:03:55;2.50;;;2.20;;
76656;SDS011;65576;47.714;9.414;2023-12-20T06:06:20;3.97;;;2.13;;
76656;SDS011;65576;47.714;9.414;2023-12-20T06:08:45;1.35;;;1.20;;
76656;SDS011;65576;47.714;9.414;2023-12-20T06:11:11;1.58;;;1.10;;
76656;SDS011;65576;47.714;9.414;2023-12-20T06:13:36;1.25;;;1.10;;
76656;SDS011;65576;47.714;9.414;2023-12-20T06:16:01;1.67;;;1.38;;
76656;SDS011;65576;47.714;9.414;2023-12-20T06:18:27;2.42;;;2.10;;
76656;SDS011;65576;47.714;9.414;2023-12-20T06:20:52;5.07;;;1.80;;
76656;SDS011;65576;47.714;9.414;2023-12-20T06:23:17;2.33;;;1.63;;
76656;SDS011;65576;47.714;9.414;2023-12-20T06:25:43;1.65;;;1.55;;
76656;SDS011;65576;47.714;9.414;2023-12-20T06:28:09;1.50;;;1.40;;
76656;SDS011;65576;47.714;9.414;2023-12-20T06:30:35;1.45;;;1.33;;
76656;SDS011;65576;47.714;9.414;2023-12-20T06:33:00;2.22;;;1.83;;
76656;SDS011;65576;47.714;9.414;2023-12-20T06:35:26;1.92;;;1.45;;
76656;SDS011;65576;47.714;9.414;2023-12-20T06:37:51;1.73;;;1.33;;
76656;SDS011;65576;47.714;9.414;2023-12-20T06:40:17;5.60;;;2.17;;
76656;SDS011;65576;47.714;9.414;2023-12-20T06:42:42;3.58;;;2.47;;
76656;SDS011;65576;47.714;9.414;2023-12-20T06:45:08;2.15;;;1.60;;
76656;SDS011;65576;47.714;9.414;2023-12-20T06:47:33;5.82;;;1.45;;
76656;SDS011;65576;47.714;9.414;2023-12-20T06:49:59;2.75;;;1.60;;
76656;SDS011;65576;47.714;9.414;2023-12-20T06:52:24;2.92;;;2.17;;
76656;SDS011;65576;47.714;9.414;2023-12-20T06:54:49;6.28;;;2.15;;
76656;SDS011;65576;47.714;9.414;2023-12-20T06:57:15;1.92;;;1.50;;
76656;SDS011;65576;47.714;9.414;2023-12-20T06:59:40;1.70;;;1.60;;
76656;SDS011;65576;47.714;9.414;2023-12-20T07:02:06;2.63;;;1.70;;
76656;SDS011;65576;47.714;9.414;2023-12-20T07:04:31;1.95;;;1.40;;
76656;SDS011;65576;47.714;9.414;2023-12-20T07:06:56;2.25;;;1.60;;
76656;SDS011;65576;47.714;9.414;2023-12-20T07:09:25;2.00;;;1.67;;
76656;SDS011;65576;47.714;9.414;2023-12-20T07:11:50;3.15;;;1.85;;
76656;SDS011;65576;47.714;9.414;2023-12-20T07:14:15;2.60;;;1.98;;
76656;SDS011;65576;47.714;9.414;2023-12-20T07:16:41;1.63;;;1.48;;
76656;SDS011;65576;47.714;9.414;2023-12-20T07:19:06;2.47;;;1.85;;
76656;SDS011;65576;47.714;9.414;2023-12-20T07:21:31;20.98;;;2.42;;
76656;SDS011;65576;47.714;9.414;2023-12-20T07:23:57;2.15;;;1.40;;
76656;SDS011;65576;47.714;9.414;2023-12-20T07:26:22;1.80;;;1.60;;
76656;SDS011;65576;47.714;9.414;2023-12-20T07:28:48;1.83;;;1.15;;
76656;SDS011;65576;47.714;9.414;2023-12-20T07:31:15;2.25;;;1.30;;
76656;SDS011;65576;47.714;9.414;2023-12-20T07:33:40;1.77;;;1.30;;
76656;SDS011;65576;47.714;9.414;2023-12-20T07:36:06;4.25;;;2.72;;
76656;SDS011;65576;47.714;9.414;2023-12-20T07:38:32;1.73;;;1.50;;
76656;SDS011;65576;47.714;9.414;2023-12-20T07:40:57;1.75;;;1.52;;
76656;SDS011;65576;47.714;9.414;2023-12-20T07:43:22;2.85;;;2.05;;
76656;SDS011;65576;47.714;9.414;2023-12-20T07:45:47;2.00;;;1.67;;
76656;SDS011;65576;47.714;9.414;2023-12-20T07:48:13;5.32;;;2.22;;
76656;SDS011;65576;47.714;9.414;2023-12-20T07:50:38;2.85;;;1.60;;
76656;SDS011;65576;47.714;9.414;2023-12-20T07:53:04;2.22;;;1.98;;
76656;SDS011;65576;47.714;9.414;2023-12-20T07:55:29;2.60;;;1.80;;
76656;SDS011;65576;47.714;9.414;2023-12-20T07:57:56;2.60;;;2.00;;
76656;SDS011;65576;47.714;9.414;2023-12-20T08:00:21;2.70;;;2.25;;
76656;SDS011;65576;47.714;9.414;2023-12-20T08:02:46;1.90;;;1.73;;
76656;SDS011;65576;47.714;9.414;2023-12-20T08:05:12;1.35;;;1.05;;
76656;SDS011;65576;47.714;9.414;2023-12-20T08:07:38;2.00;;;1.52;;
76656;SDS011;65576;47.714;9.414;2023-12-20T08:10:03;3.95;;;2.03;;
76656;SDS011;65576;47.714;9.414;2023-12-20T08:12:29;1.48;;;1.15;;
76656;SDS011;65576;47.714;9.414;2023-12-20T08:14:55;3.83;;;1.88;;
76656;SDS011;65576;47.714;9.414;2023-12-20T08:17:20;1.65;;;1.50;;
76656;SDS011;65576;47.714;9.414;2023-12-20T08:19:45;2.28;;;2.08;;
76656;SDS011;65576;47.714;9.414;2023-12-20T08:22:11;4.45;;;2.45;;
76656;SDS011;65576;47.714;9.414;2023-12-20T08:24:36;3.97;;;2.13;;
76656;SDS011;65576;47.714;9.414;2023-12-20T08:27:02;1.80;;;1.60;;
76656;SDS011;65576;47.714;9.414;2023-12-20T08:29:27;2.60;;;1.88;;
76656;SDS011;65576;47.714;9.414;2023-12-20T08:31:53;2.53;;;1.52;;
76656;SDS011;65576;47.714;9.414;2023-12-20T08:34:19;2.25;;;1.92;;
76656;SDS011;65576;47.714;9.414;2023-12-20T08:36:44;2.45;;;2.25;;
76656;SDS011;65576;47.714;9.414;2023-12-20T08:39:09;2.47;;;1.77;;
76656;SDS011;65576;47.714;9.414;2023-12-20T08:41:35;4.82;;;2.63;;
76656;SDS011;65576;47.714;9.414;2023-12-20T08:44:00;1.67;;;1.58;;
76656;SDS011;65576;47.714;9.414;2023-12-20T08:46:25;2.28;;;2.05;;
76656;SDS011;65576;47.714;9.414;2023-12-20T08:48:51;2.28;;;1.73;;
76656;SDS011;65576;47.714;9.414;2023-12-20T08:51:16;3.65;;;2.58;;
76656;SDS011;65576;47.714;9.414;2023-12-20T08:53:41;1.85;;;1.55;;
76656;SDS011;65576;47.714;9.414;2023-12-20T08:56:10;3.05;;;2.05;;
76656;SDS011;65576;47.714;9.414;2023-12-20T08:58:35;2.47;;;1.73;;
76656;SDS011;65576;47.714;9.414;2023-12-20T09:01:01;5.18;;;1.75;;
76656;SDS011;65576;47.714;9.414;2023-12-20T09:03:26;2.50;;;1.90;;
76656;SDS011;65576;47.714;9.414;2023-12-20T09:05:51;2.13;;;1.92;;
76656;SDS011;65576;47.714;9.414;2023-12-20T09:08:17;2.05;;;1.55;;
76656;SDS011;65576;47.714;9.414;2023-12-20T09:10:42;1.83;;;1.52;;
76656;SDS011;65576;47.714;9.414;2023-12-20T09:13:07;2.97;;;2.28;;
76656;SDS011;65576;47.714;9.414;2023-12-20T09:15:33;1.85;;;1.67;;
76656;SDS011;65576;47.714;9.414;2023-12-20T09:17:59;3.08;;;2.55;;
76656;SDS011;65576;47.714;9.414;2023-12-20T09:20:24;4.07;;;2.53;;
76656;SDS011;65576;47.714;9.414;2023-12-20T09:22:50;3.03;;;1.58;;
76656;SDS011;65576;47.714;9.414;2023-12-20T09:25:15;2.90;;;2.60;;
76656;SDS011;65576;47.714;9.414;2023-12-20T09:27:42;3.40;;;2.38;;
76656;SDS011;65576;47.714;9.414;2023-12-20T09:30:08;2.47;;;1.70;;
76656;SDS011;65576;47.714;9.414;2023-12-20T09:32:33;2.95;;;2.30;;
76656;SDS011;65576;47.714;9.414;2023-12-20T09:34:59;2.75;;;1.90;;
76656;SDS011;65576;47.714;9.414;2023-12-20T09:37:27;2.95;;;2.28;;
76656;SDS011;65576;47.714;9.414;2023-12-20T09:39:53;2.97;;;2.53;;
76656;SDS011;65576;47.714;9.414;2023-12-20T09:42:21;1.55;;;1.33;;
76656;SDS011;65576;47.714;9.414;2023-12-20T09:44:50;3.05;;;2.67;;
76656;SDS011;65576;47.714;9.414;2023-12-20T09:47:15;4.35;;;1.75;;
76656;SDS011;65576;47.714;9.414;2023-12-20T09:49:45;1.52;;;1.42;;
76656;SDS011;65576;47.714;9.414;2023-12-20T09:52:11;2.28;;;1.77;;
76656;SDS011;65576;47.714;9.414;2023-12-20T09:54:37;2.88;;;1.58;;
76656;SDS011;65576;47.714;9.414;2023-12-20T09:57:02;2.08;;;1.80;;
76656;SDS011;65576;47.714;9.414;2023-12-20T09:59:27;4.43;;;1.73;;
76656;SDS011;65576;47.714;9.414;2023-12-20T10:01:53;1.60;;;1.42;;
76656;SDS011;65576;47.714;9.414;2023-12-20T10:04:21;0.73;;;0.55;;
76656;SDS011;65576;47.714;9.414;2023-12-20T10:06:47;1.92;;;1.50;;
76656;SDS011;65576;47.714;9.414;2023-12-20T10:09:13;1.10;;;1.00;;
76656;SDS011;65576;47.714;9.414;2023-12-20T10:11:38;2.42;;;1.35;;
76656;SDS011;65576;47.714;9.414;2023-12-20T10:14:04;1.52;;;1.40;;
76656;SDS011;65576;47.714;9.414;2023-12-20T10:16:30;0.77;;;0.77;;
76656;SDS011;65576;47.714;9.414;2023-12-20T10:18:56;0.98;;;0.88;;
76656;SDS011;65576;47.714;9.414;2023-12-20T10:21:22;1.25;;;0.88;;
76656;SDS011;65576;47.714;9.414;2023-12-20T10:23:48;1.40;;;1.27;;
76656;SDS011;65576;47.714;9.414;2023-12-20T10:26:21;0.85;;;0.75;;
76656;SDS011;65576;47.714;9.414;2023-12-20T10:28:54;0.40;;;0.40;;
76656;SDS011;65576;47.714;9.414;2023-12-20T10:31:30;1.38;;;1.27;;
76656;SDS011;65576;47.714;9.414;2023-12-20T10:33:56;1.10;;;1.00;;
76656;SDS011;65576;47.714;9.414;2023-12-20T10:36:23;1.83;;;1.25;;
76656;SDS011;65576;47.714;9.414;2023-12-20T10:38:51;0.73;;;0.70;;
76656;SDS011;65576;47.714;9.414;2023-12-20T10:41:18;1.17;;;1.08;;
76656;SDS011;65576;47.714;9.414;2023-12-20T10:43:51;2.05;;;1.10;;
76656;SDS011;65576;47.714;9.414;2023-12-20T10:46:17;2.60;;;1.08;;
76656;SDS011;65576;47.714;9.414;2023-12-20T10:48:44;1.65;;;1.17;;
76656;SDS011;65576;47.714;9.414;2023-12-20T10:51:10;1.45;;;0.80;;
76656;SDS011;65576;47.714;9.414;2023-12-20T10:53:36;3.17;;;1.25;;
76656;SDS011;65576;47.714;9.414;2023-12-20T10:56:02;1.30;;;1.00;;
76656;SDS011;65576;47.714;9.414;2023-12-20T10:58:28;1.10;;;0.90;;
76656;SDS011;65576;47.714;9.414;2023-12-20T11:00:58;0.88;;;0.85;;
76656;SDS011;65576;47.714;9.414;2023-12-20T11:03:26;0.70;;;0.70;;
76656;SDS011;65576;47.714;9.414;2023-12-20T11:06:05;1.00;;;0.80;;
76656;SDS011;65576;47.714;9.414;2023-12-20T11:11:05;0.70;;;0.70;;
76656;SDS011;65576;47.714;9.414;2023-12-20T11:16:20;1.50;;;0.82;;
76656;SDS011;65576;47.714;9.414;2023-12-20T11:18:46;1.50;;;1.02;;
76656;SDS011;65576;47.714;9.414;2023-12-20T11:21:11;0.82;;;0.82;;
76656;SDS011;65576;47.714;9.414;2023-12-20T11:23:36;0.73;;;0.55;;
76656;SDS011;65576;47.714;9.414;2023-12-20T11:26:02;1.20;;;1.08;;
76656;SDS011;65576;47.714;9.414;2023-12-20T11:28:28;1.00;;;0.85;;
76656;SDS011;65576;47.714;9.414;2023-12-20T11:30:55;0.88;;;0.60;;
76656;SDS011;65576;47.714;9.414;2023-12-20T11:33:35;1.73;;;0.73;;
76656;SDS011;65576;47.714;9.414;2023-12-20T11:36:01;3.90;;;0.80;;
76656;SDS011;65576;47.714;9.414;2023-12-20T11:38:27;0.52;;;0.52;;
76656;SDS011;65576;47.714;9.414;2023-12-20T11:41:00;0.70;;;0.70;;
76656;SDS011;65576;47.714;9.414;2023-12-20T11:43:38;1.15;;;1.00;;
76656;SDS011;65576;47.714;9.414;2023-12-20T11:46:07;1.33;;;0.73;;
76656;SDS011;65576;47.714;9.414;2023-12-20T11:48:34;0.75;;;0.43;;
76656;SDS011;65576;47.714;9.414;2023-12-20T11:51:08;0.40;;;0.40;;
76656;SDS011;65576;47.714;9.414;2023-12-20T11:53:35;0.63;;;0.47;;
76656;SDS011;65576;47.714;9.414;2023-12-20T11:56:01;0.52;;;0.52;;
76656;SDS011;65576;47.714;9.414;2023-12-20T11:58:28;0.80;;;0.80;;
76656;SDS011;65576;47.714;9.414;2023-12-20T12:00:53;0.60;;;0.60;;
76656;SDS011;65576;47.714;9.414;2023-12-20T12:03:20;0.77;;;0.77;;
76656;SDS011;65576;47.714;9.414;2023-12-20T12:05:46;0.90;;;0.60;;
76656;SDS011;65576;47.714;9.414;2023-12-20T12:08:12;0.73;;;0.70;;
76656;SDS011;65576;47.714;9.414;2023-12-20T12:10:38;0.30;;;0.30;;
76656;SDS011;65576;47.714;9.414;2023-12-20T12:13:03;0.70;;;0.70;;
76656;SDS011;65576;47.714;9.414;2023-12-20T12:15:29;0.35;;;0.35;;
76656;SDS011;65576;47.714;9.414;2023-12-20T12:17:55;0.50;;;0.50;;
76656;SDS011;65576;47.714;9.414;2023-12-20T12:20:24;0.85;;;0.70;;
76656;SDS011;65576;47.714;9.414;2023-12-20T12:25:25;0.50;;;0.50;;
76656;SDS011;65576;47.714;9.414;2023-12-20T12:27:51;0.40;;;0.40;;
76656;SDS011;65576;47.714;9.414;2023-12-20T12:30:16;0.30;;;0.30;;
76656;SDS011;65576;47.714;9.414;2023-12-20T12:32:43;0.43;;;0.43;;
76656;SDS011;65576;47.714;9.414;2023-12-20T12:35:09;0.52;;;0.52;;
76656;SDS011;65576;47.714;9.414;2023-12-20T12:37:37;0.73;;;0.47;;
76656;SDS011;65576;47.714;9.414;2023-12-20T12:40:04;0.30;;;0.30;;
76656;SDS011;65576;47.714;9.414;2023-12-20T12:42:30;1.75;;;0.65;;
76656;SDS011;65576;47.714;9.414;2023-12-20T12:44:56;0.25;;;0.25;;
76656;SDS011;65576;47.714;9.414;2023-12-20T12:47:21;0.20;;;0.20;;
76656;SDS011;65576;47.714;9.414;2023-12-20T12:49:47;0.40;;;0.40;;
76656;SDS011;65576;47.714;9.414;2023-12-20T12:52:12;0.45;;;0.45;;
76656;SDS011;65576;47.714;9.414;2023-12-20T12:54:38;0.08;;;0.08;;
76656;SDS011;65576;47.714;9.414;2023-12-20T12:57:03;0.50;;;0.50;;
76656;SDS011;65576;47.714;9.414;2023-12-20T12:59:29;0.40;;;0.40;;
76656;SDS011;65576;47.714;9.414;2023-12-20T13:01:54;0.40;;;0.40;;
76656;SDS011;65576;47.714;9.414;2023-12-20T13:04:19;0.25;;;0.25;;
76656;SDS011;65576;47.714;9.414;2023-12-20T13:06:45;3.13;;;0.38;;
76656;SDS011;65576;47.714;9.414;2023-12-20T13:09:10;0.50;;;0.50;;
76656;SDS011;65576;47.714;9.414;2023-12-20T13:11:35;0.13;;;0.13;;
76656;SDS011;65576;47.714;9.414;2023-12-20T13:14:01;0.40;;;0.40;;
76656;SDS011;65576;47.714;9.414;2023-12-20T13:16:26;0.47;;;0.40;;
76656;SDS011;65576;47.714;9.414;2023-12-20T13:18:51;0.30;;;0.30;;
76656;SDS011;65576;47.714;9.414;2023-12-20T13:21:17;0.30;;;0.30;;
76656;SDS011;65576;47.714;9.414;2023-12-20T13:23:42;0.40;;;0.40;;
76656;SDS011;65576;47.714;9.414;2023-12-20T13:26:08;1.08;;;0.38;;
76656;SDS011;65576;47.714;9.414;2023-12-20T13:28:33;2.40;;;0.55;;
76656;SDS011;65576;47.714;9.414;2023-12-20T13:30:58;0.40;;;0.40;;
76656;SDS011;65576;47.714;9.414;2023-12-20T13:33:24;0.63;;;0.30;;
76656;SDS011;65576;47.714;9.414;2023-12-20T13:35:50;0.20;;;0.20;;
76656;SDS011;65576;47.714;9.414;2023-12-20T13:38:15;0.10;;;0.10;;
76656;SDS011;65576;47.714;9.414;2023-12-20T13:40:41;4.00;;;0.75;;
76656;SDS011;65576;47.714;9.414;2023-12-20T13:43:06;0.28;;;0.20;;
76656;SDS011;65576;47.714;9.414;2023-12-20T13:45:31;0.45;;;0.40;;
76656;SDS011;65576;47.714;9.414;2023-12-20T13:47:57;0.30;;;0.30;;
76656;SDS011;65576;47.714;9.414;2023-12-20T13:50:23;0.20;;;0.20;;
76656;SDS011;65576;47.714;9.414;2023-12-20T13:52:49;0.30;;;0.30;;
76656;SDS011;65576;47.714;9.414;2023-12-20T13:55:14;0.30;;;0.30;;
76656;SDS011;65576;47.714;9.414;2023-12-20T13:57:39;0.20;;;0.20;;
76656;SDS011;65576;47.714;9.414;2023-12-20T14:00:06;0.47;;;0.35;;
76656;SDS011;65576;47.714;9.414;2023-12-20T14:02:39;0.65;;;0.20;;
76656;SDS011;65576;47.714;9.414;2023-12-20T14:05:04;0.50;;;0.50;;
76656;SDS011;65576;47.714;9.414;2023-12-20T14:07:31;0.20;;;0.20;;
76656;SDS011;65576;47.714;9.414;2023-12-20T14:09:56;0.32;;;0.32;;
76656;SDS011;65576;47.714;9.414;2023-12-20T14:12:21;0.30;;;0.30;;
76656;SDS011;65576;47.714;9.414;2023-12-20T14:14:47;0.30;;;0.30;;
76656;SDS011;65576;47.714;9.414;2023-12-20T14:17:12;1.27;;;0.50;;
76656;SDS011;65576;47.714;9.414;2023-12-20T14:19:37;1.23;;;0.43;;
76656;SDS011;65576;47.714;9.414;2023-12-20T14:22:03;0.35;;;0.35;;
76656;SDS011;65576;47.714;9.414;2023-12-20T14:24:29;0.40;;;0.40;;
76656;SDS011;65576;47.714;9.414;2023-12-20T14:26:54;0.45;;;0.43;;
76656;SDS011;65576;47.714;9.414;2023-12-20T14:29:20;0.55;;;0.55;;
76656;SDS011;65576;47.714;9.414;2023-12-20T14:31:45;1.88;;;0.75;;
76656;SDS011;65576;47.714;9.414;2023-12-20T14:34:11;1.13;;;0.20;;
76656;SDS011;65576;47.714;9.414;2023-12-20T14:36:36;0.63;;;0.63;;
76656;SDS011;65576;47.714;9.414;2023-12-20T14:39:02;0.22;;;0.22;;
76656;SDS011;65576;47.714;9.414;2023-12-20T14:41:28;0.95;;;0.82;;
76656;SDS011;65576;47.714;9.414;2023-12-20T14:43:53;0.70;;;0.70;;
76656;SDS011;65576;47.714;9.414;2023-12-20T14:46:19;0.22;;;0.22;;